Weather at Christchurch International Airport

Public forecast

Using degrees Celsius for public forecast. Weather courtesy of forecast.io.

Current aviation weather report (METAR) for Christchurch International Airport

Retrieved 2021/01/22 05:30 UTC (0 seconds ago):

NZCH 220530Z AUTO 07017KT 9999 NCD 19/11 Q1005 NOSIG

Aviation forecast (TAF) for Christchurch International Airport

Retrieved 2021-01-22 00:00 UTC (5 hours ago):

TAF NZCH 212302Z 2200/2300 07012KT 9999 SCT050 BECMG 2209/2211 30008KT BECMG 2216/2218 06010KT BECMG 2222/2300 34015G25KT